createdAt,value
2018-07-04T00:01:30.204Z,98.70
2018-07-04T00:07:24.234Z,99.80
2018-07-04T00:10:15.094Z,99.90
2018-07-04T00:13:01.587Z,99.90
2018-07-04T00:15:47.898Z,99.90
2018-07-04T00:18:34.127Z,99.90
2018-07-04T00:21:21.670Z,99.90
2018-07-04T00:24:08.120Z,99.90
2018-07-04T00:26:54.381Z,99.90
2018-07-04T00:29:40.772Z,99.90
2018-07-04T00:32:29.334Z,99.90
2018-07-04T00:35:15.744Z,99.90
2018-07-04T00:38:02.102Z,99.90
2018-07-04T00:40:48.550Z,99.90
2018-07-04T00:43:34.848Z,99.90
2018-07-04T00:46:21.256Z,99.90
2018-07-04T00:49:07.493Z,99.90
2018-07-04T00:51:53.960Z,99.90
2018-07-04T00:54:40.404Z,99.90
2018-07-04T00:57:26.930Z,99.90
2018-07-04T01:00:15.353Z,99.90
2018-07-04T01:03:01.715Z,99.90
2018-07-04T01:05:48.115Z,99.90
2018-07-04T01:08:34.439Z,99.90
2018-07-04T01:11:20.758Z,99.90
2018-07-04T01:14:07.073Z,99.90
2018-07-04T01:16:53.506Z,99.90
2018-07-04T01:19:39.737Z,99.90
2018-07-04T01:22:26.030Z,99.90
2018-07-04T01:25:12.476Z,99.90
2018-07-04T01:27:58.841Z,99.90
2018-07-04T01:30:45.262Z,99.90
2018-07-04T01:33:31.575Z,99.90
2018-07-04T01:38:58.530Z,99.90
2018-07-04T01:41:44.948Z,99.90
2018-07-04T01:44:31.266Z,99.90
2018-07-04T01:47:17.654Z,99.90
2018-07-04T01:50:04.213Z,99.90
2018-07-04T01:52:50.740Z,99.90
2018-07-04T01:55:37.245Z,99.90
2018-07-04T01:58:23.720Z,99.90
2018-07-04T02:01:10.147Z,99.90
2018-07-04T02:03:56.580Z,99.90
2018-07-04T02:06:42.946Z,99.90
2018-07-04T02:09:29.328Z,99.90
2018-07-04T02:12:15.764Z,99.90
2018-07-04T02:15:02.014Z,99.90
2018-07-04T02:17:48.517Z,99.90
2018-07-04T02:20:35.029Z,99.90
2018-07-04T02:23:21.352Z,99.90
2018-07-04T02:26:07.678Z,99.90
2018-07-04T02:28:54.013Z,99.90
2018-07-04T02:31:41.409Z,99.90
2018-07-04T02:34:27.602Z,99.90
2018-07-04T02:37:13.945Z,99.90
2018-07-04T02:40:00.137Z,99.90
2018-07-04T02:42:51.211Z,99.90
2018-07-04T02:45:37.895Z,99.90
2018-07-04T02:48:24.110Z,99.90
2018-07-04T02:51:10.452Z,99.90
2018-07-04T02:53:56.740Z,99.90
2018-07-04T02:56:43.116Z,99.90
2018-07-04T02:59:29.540Z,99.90
2018-07-04T03:02:16.846Z,99.90
2018-07-04T03:05:03.052Z,99.90
2018-07-04T03:07:49.360Z,99.90
2018-07-04T03:10:35.617Z,99.90
2018-07-04T03:13:22.018Z,99.90
2018-07-04T03:16:08.563Z,99.90
2018-07-04T03:18:54.847Z,99.90
2018-07-04T03:21:41.173Z,99.90
2018-07-04T03:24:27.568Z,99.90
2018-07-04T03:27:13.827Z,99.90
2018-07-04T03:30:00.116Z,99.90
2018-07-04T03:38:07.306Z,99.90
2018-07-04T03:40:53.782Z,99.90
2018-07-04T03:43:40.152Z,99.90
2018-07-04T03:46:26.457Z,99.90
2018-07-04T03:49:13.007Z,99.90
2018-07-04T03:51:59.448Z,99.90
2018-07-04T03:54:45.830Z,99.90
2018-07-04T03:57:32.154Z,99.90
2018-07-04T04:00:18.455Z,99.90
2018-07-04T04:03:04.903Z,99.90
2018-07-04T04:05:51.136Z,99.90
2018-07-04T04:08:37.656Z,99.90
2018-07-04T04:11:24.103Z,99.90
2018-07-04T04:14:10.498Z,99.90
2018-07-04T04:16:56.849Z,99.90
2018-07-04T04:19:43.118Z,99.90
2018-07-04T04:22:29.592Z,99.90
2018-07-04T04:25:16.082Z,99.90
2018-07-04T04:28:02.393Z,99.90
2018-07-04T04:30:50.048Z,99.90
2018-07-04T04:33:36.357Z,99.90
2018-07-04T04:36:23.234Z,99.90
2018-07-04T04:39:09.767Z,99.90
2018-07-04T04:44:36.411Z,99.90
2018-07-04T04:47:22.852Z,99.90
2018-07-04T04:50:09.241Z,99.90
2018-07-04T04:52:55.705Z,99.90
2018-07-04T04:55:43.141Z,99.90
2018-07-04T04:58:29.535Z,99.90
2018-07-04T05:01:15.836Z,99.90
2018-07-04T05:04:02.160Z,99.90
2018-07-04T05:09:28.894Z,99.90
2018-07-04T05:12:15.216Z,99.90
2018-07-04T05:15:01.496Z,99.90
2018-07-04T05:17:47.843Z,99.90
2018-07-04T05:20:34.083Z,99.90
2018-07-04T05:23:20.345Z,99.90
2018-07-04T05:26:06.809Z,99.90
2018-07-04T05:28:55.509Z,99.90
2018-07-04T05:31:41.859Z,99.90
2018-07-04T05:34:28.144Z,99.90
2018-07-04T05:37:15.568Z,99.90
2018-07-04T05:40:01.901Z,99.90
2018-07-04T05:42:48.724Z,99.90
2018-07-04T05:45:34.961Z,99.90
2018-07-04T05:48:21.312Z,99.90
2018-07-04T05:53:48.233Z,99.90
2018-07-04T05:56:34.473Z,99.90
2018-07-04T05:59:20.848Z,99.90
2018-07-04T06:02:07.404Z,99.90
2018-07-04T06:04:53.874Z,99.90
2018-07-04T06:07:40.213Z,99.90
2018-07-04T06:10:26.511Z,99.90
2018-07-04T06:13:17.977Z,99.90
2018-07-04T06:16:04.294Z,99.90
2018-07-04T06:18:50.692Z,99.90
2018-07-04T06:21:37.096Z,99.90
2018-07-04T06:24:23.400Z,99.60
2018-07-04T06:27:09.773Z,98.80
2018-07-04T06:29:56.308Z,98.60
2018-07-04T06:32:42.742Z,98.50
2018-07-04T06:35:28.981Z,98.20
2018-07-04T06:38:02.924Z,98.80
2018-07-04T06:40:30.808Z,98.30
2018-07-04T06:42:58.653Z,98.60
2018-07-04T06:45:26.536Z,97.50
2018-07-04T06:47:54.390Z,96.40
2018-07-04T06:50:22.278Z,96.20
2018-07-04T06:52:50.238Z,95.40
2018-07-04T06:55:18.121Z,95.40
2018-07-04T06:57:45.992Z,96.20
2018-07-04T07:00:13.890Z,94.70
2018-07-04T07:02:43.748Z,95.20
2018-07-04T07:05:23.994Z,95.10
2018-07-04T07:08:10.372Z,94.20
2018-07-04T07:10:56.701Z,93.80
2018-07-04T07:13:44.073Z,94.40
2018-07-04T07:16:30.521Z,93.60
2018-07-04T07:19:16.939Z,94.10
2018-07-04T07:22:03.325Z,93.50
2018-07-04T07:24:49.672Z,92.50
2018-07-04T07:27:36.999Z,93.10
2018-07-04T07:30:24.421Z,91.90
2018-07-04T07:33:14.019Z,91.80
2018-07-04T07:36:00.240Z,91.80
2018-07-04T07:38:46.547Z,90.70
2018-07-04T07:41:32.885Z,88.60
2018-07-04T07:44:20.160Z,88.00
2018-07-04T07:47:06.392Z,90.70
2018-07-04T07:49:53.273Z,90.30
2018-07-04T07:52:39.666Z,89.50
2018-07-04T07:55:26.054Z,88.20
2018-07-04T07:58:12.391Z,88.90
2018-07-04T08:00:58.601Z,85.70
2018-07-04T08:03:44.959Z,85.70
2018-07-04T08:06:31.187Z,86.10
2018-07-04T08:09:17.416Z,86.60
2018-07-04T08:12:03.764Z,85.00
2018-07-04T08:14:50.240Z,82.00
2018-07-04T08:17:36.487Z,82.60
2018-07-04T08:20:23.009Z,81.90
2018-07-04T08:23:09.556Z,78.50
2018-07-04T08:25:56.048Z,76.30
2018-07-04T08:28:42.549Z,77.50
2018-07-04T08:31:28.811Z,74.10
2018-07-04T08:34:15.204Z,75.10
2018-07-04T08:37:01.456Z,73.00
2018-07-04T08:39:47.790Z,73.00
2018-07-04T08:42:39.786Z,75.70
2018-07-04T08:45:26.116Z,74.20
2018-07-04T08:48:12.365Z,73.30
2018-07-04T08:50:58.923Z,71.00
2018-07-04T08:53:45.452Z,70.90
2018-07-04T08:56:31.787Z,70.70
2018-07-04T08:59:18.265Z,64.30
2018-07-04T09:02:04.687Z,69.20
2018-07-04T09:04:51.005Z,64.50
2018-07-04T09:07:37.364Z,66.20
2018-07-04T09:13:04.121Z,66.30
2018-07-04T09:15:51.547Z,66.70
2018-07-04T09:18:37.811Z,62.70
2018-07-04T09:21:25.152Z,63.10
2018-07-04T09:24:11.552Z,63.20
2018-07-04T09:29:40.464Z,62.00
2018-07-04T09:32:27.990Z,61.00
2018-07-04T09:35:20.052Z,60.10
2018-07-04T09:38:06.453Z,62.00
2018-07-04T09:40:52.800Z,60.60
2018-07-04T09:43:39.185Z,58.70
2018-07-04T09:46:25.522Z,57.50
2018-07-04T09:49:11.756Z,57.50
2018-07-04T09:51:58.183Z,57.40
2018-07-04T09:54:44.481Z,58.90
2018-07-04T09:57:30.717Z,58.10
2018-07-04T10:00:21.197Z,56.20
2018-07-04T10:03:07.872Z,52.40
2018-07-04T10:05:54.213Z,53.30
2018-07-04T10:08:40.394Z,53.00
2018-07-04T10:11:26.935Z,51.40
2018-07-04T10:14:13.367Z,54.10
2018-07-04T10:16:59.865Z,51.10
2018-07-04T10:19:46.248Z,50.60
2018-07-04T10:22:32.568Z,49.40
2018-07-04T10:25:21.069Z,46.70
2018-07-04T10:28:07.320Z,46.90
2018-07-04T10:30:53.620Z,47.80
2018-07-04T10:33:39.836Z,48.60
2018-07-04T10:36:26.115Z,48.70
2018-07-04T10:39:12.569Z,50.00
2018-07-04T10:41:58.906Z,47.90
2018-07-04T10:44:45.327Z,48.50
2018-07-04T10:47:32.858Z,46.60
2018-07-04T10:50:19.435Z,48.40
2018-07-04T10:53:05.897Z,48.50
2018-07-04T10:55:52.271Z,46.30
2018-07-04T11:01:18.976Z,47.20
2018-07-04T11:04:05.387Z,47.70
2018-07-04T11:06:51.661Z,46.70
2018-07-04T11:09:38.403Z,45.00
2018-07-04T11:12:26.827Z,45.00
2018-07-04T11:15:13.080Z,47.60
2018-07-04T11:17:59.611Z,46.40
2018-07-04T11:20:46.103Z,46.60
2018-07-04T11:23:32.411Z,47.10
2018-07-04T11:26:18.788Z,46.50
2018-07-04T11:31:47.500Z,44.90
2018-07-04T11:34:33.740Z,47.10
2018-07-04T11:37:21.139Z,45.90
2018-07-04T11:40:07.515Z,44.50
2018-07-04T11:42:53.740Z,45.70
2018-07-04T11:45:40.065Z,44.60
2018-07-04T11:50:42.052Z,46.50
2018-07-04T11:53:09.945Z,44.90
2018-07-04T11:55:37.794Z,45.60
2018-07-04T11:58:07.660Z,45.50
2018-07-04T12:00:35.527Z,44.40
2018-07-04T12:03:19.825Z,44.40
2018-07-04T12:06:02.100Z,44.50
2018-07-04T12:08:36.037Z,46.00
2018-07-04T12:11:03.915Z,46.10
2018-07-04T12:13:31.752Z,45.30
2018-07-04T12:15:59.668Z,45.60
2018-07-04T12:18:29.471Z,44.20
2018-07-04T12:20:57.443Z,46.90
2018-07-04T12:23:26.256Z,46.10
2018-07-04T12:28:22.193Z,44.30
2018-07-04T12:30:50.068Z,46.40
2018-07-04T12:33:17.916Z,46.00
2018-07-04T12:35:45.804Z,47.90
2018-07-04T12:38:13.643Z,47.20
2018-07-04T12:40:47.661Z,45.70
2018-07-04T12:45:43.657Z,42.90
2018-07-04T12:48:11.520Z,43.20
2018-07-04T12:50:41.338Z,43.40
2018-07-04T12:53:09.208Z,46.10
2018-07-04T12:55:49.463Z,44.80
2018-07-04T12:58:35.868Z,46.80
2018-07-04T13:01:22.263Z,46.60
2018-07-04T13:04:08.572Z,48.10
2018-07-04T13:06:55.107Z,47.90
2018-07-04T13:09:46.299Z,46.90
2018-07-04T13:12:32.663Z,46.30
2018-07-04T13:15:19.089Z,49.60
2018-07-04T13:18:05.503Z,49.60
2018-07-04T13:20:51.912Z,50.50
2018-07-04T13:23:38.497Z,50.10
2018-07-04T13:26:24.772Z,51.60
2018-07-04T13:29:11.139Z,50.50
2018-07-04T13:31:57.944Z,50.50
2018-07-04T13:34:44.650Z,50.20
2018-07-04T13:37:31.500Z,50.30
2018-07-04T13:40:18.077Z,49.40
2018-07-04T13:43:04.744Z,50.10
2018-07-04T13:45:51.573Z,50.30
2018-07-04T13:48:38.057Z,50.30
2018-07-04T13:51:24.694Z,50.80
2018-07-04T13:54:11.342Z,51.60
2018-07-04T13:56:57.986Z,51.30
2018-07-04T13:59:44.297Z,53.00
2018-07-04T14:02:30.756Z,52.10
2018-07-04T14:05:17.021Z,52.50
2018-07-04T14:08:05.537Z,54.50
2018-07-04T14:10:52.019Z,52.70
2018-07-04T14:13:38.340Z,51.50
2018-07-04T14:16:24.850Z,51.30
2018-07-04T14:19:11.290Z,52.90
2018-07-04T14:21:57.781Z,53.30
2018-07-04T14:24:44.165Z,53.10
2018-07-04T14:27:30.543Z,54.10
2018-07-04T14:30:17.064Z,53.50
2018-07-04T14:33:03.332Z,53.70
2018-07-04T14:35:49.684Z,55.30
2018-07-04T14:38:36.073Z,55.30
2018-07-04T14:44:02.806Z,55.00
2018-07-04T14:46:49.369Z,57.90
2018-07-04T14:49:35.760Z,64.20
2018-07-04T14:52:23.258Z,66.60
2018-07-04T14:55:09.724Z,67.10
2018-07-04T14:57:56.284Z,68.00
2018-07-04T15:00:48.459Z,67.60
2018-07-04T15:03:34.797Z,68.20
2018-07-04T15:06:21.268Z,68.40
2018-07-04T15:09:07.757Z,68.40
2018-07-04T15:14:37.911Z,68.90
2018-07-04T15:17:24.543Z,69.30
2018-07-04T15:22:52.465Z,69.30
2018-07-04T15:25:40.951Z,68.50
2018-07-04T15:28:27.339Z,69.50
2018-07-04T15:31:13.836Z,67.70
2018-07-04T15:34:01.414Z,68.00
2018-07-04T15:36:47.937Z,68.20
2018-07-04T15:39:35.255Z,68.70
2018-07-04T15:42:23.701Z,69.50
2018-07-04T15:45:10.069Z,71.30
2018-07-04T15:47:56.545Z,69.70
2018-07-04T15:50:42.813Z,69.10
2018-07-04T15:53:29.316Z,69.30
2018-07-04T15:56:16.718Z,69.90
2018-07-04T15:59:03.108Z,70.40
2018-07-04T16:01:49.430Z,70.20
2018-07-04T16:04:35.783Z,70.00
2018-07-04T16:07:22.206Z,70.30
2018-07-04T16:10:08.584Z,69.30
2018-07-04T16:12:58.924Z,69.30
2018-07-04T16:15:45.272Z,69.00
2018-07-04T16:18:34.028Z,69.90
2018-07-04T16:21:20.512Z,70.30
2018-07-04T16:24:07.957Z,71.30
2018-07-04T16:26:57.157Z,71.00
2018-07-04T16:29:43.665Z,71.60
2018-07-04T16:32:31.486Z,71.10
2018-07-04T16:35:17.933Z,72.00
2018-07-04T16:38:04.383Z,72.40
2018-07-04T16:40:50.908Z,71.70
2018-07-04T16:43:37.353Z,71.60
2018-07-04T16:46:28.144Z,73.20
2018-07-04T16:49:14.435Z,72.90
2018-07-04T16:52:00.803Z,73.00
2018-07-04T16:54:47.331Z,72.70
2018-07-04T16:57:34.203Z,73.00
2018-07-04T17:00:21.374Z,72.70
2018-07-04T17:03:09.088Z,73.10
2018-07-04T17:06:00.681Z,73.70
2018-07-04T17:11:28.526Z,74.00
2018-07-04T17:14:15.741Z,74.00
2018-07-04T17:17:03.151Z,74.30
2018-07-04T17:19:50.603Z,74.30
2018-07-04T17:22:37.395Z,74.40
2018-07-04T17:25:24.483Z,75.30
2018-07-04T17:28:12.079Z,75.50
2018-07-04T17:30:58.967Z,75.30
2018-07-04T17:33:46.522Z,75.50
2018-07-04T17:36:35.075Z,74.40
2018-07-04T17:39:23.296Z,74.40
2018-07-04T17:42:10.428Z,74.20
2018-07-04T17:44:57.177Z,74.10
2018-07-04T17:47:44.230Z,74.40
2018-07-04T17:50:31.185Z,74.30
2018-07-04T17:53:17.888Z,75.20
2018-07-04T17:58:45.861Z,75.30
2018-07-04T18:01:32.937Z,75.70
2018-07-04T18:07:00.629Z,76.40
2018-07-04T18:09:46.956Z,76.30
2018-07-04T18:12:33.360Z,77.40
2018-07-04T18:15:19.929Z,77.40
2018-07-04T18:18:06.527Z,77.60
2018-07-04T18:20:54.099Z,78.70
2018-07-04T18:23:40.397Z,79.10
2018-07-04T18:26:26.813Z,79.50
2018-07-04T18:29:13.303Z,80.60
2018-07-04T18:32:06.081Z,81.20
2018-07-04T18:34:52.705Z,81.30
2018-07-04T18:37:39.591Z,82.40
2018-07-04T18:40:28.180Z,82.90
2018-07-04T18:43:16.089Z,83.40
2018-07-04T18:46:05.486Z,84.30
2018-07-04T18:48:53.006Z,85.70
2018-07-04T18:51:42.199Z,87.30
2018-07-04T18:54:29.488Z,88.00
2018-07-04T18:57:16.801Z,87.70
2018-07-04T19:00:04.200Z,87.40
2018-07-04T19:02:52.214Z,87.40
2018-07-04T19:05:40.817Z,88.60
2018-07-04T19:08:27.272Z,89.30
2018-07-04T19:11:13.559Z,89.50
2018-07-04T19:13:59.958Z,90.10
2018-07-04T19:16:46.448Z,90.20
2018-07-04T19:19:32.837Z,90.50
2018-07-04T19:22:19.475Z,91.00
2018-07-04T19:25:05.883Z,91.10
2018-07-04T19:27:52.162Z,91.50
2018-07-04T19:30:38.507Z,91.60
2018-07-04T19:33:25.097Z,91.90
2018-07-04T19:36:11.973Z,92.20
2018-07-04T19:38:58.316Z,92.40
2018-07-04T19:41:44.656Z,92.50
2018-07-04T19:44:30.944Z,93.00
2018-07-04T19:47:18.295Z,93.40
2018-07-04T19:50:04.601Z,93.70
2018-07-04T19:52:50.908Z,94.90
2018-07-04T19:55:37.345Z,95.00
2018-07-04T19:58:23.606Z,94.80
2018-07-04T20:01:09.916Z,95.40
2018-07-04T20:03:56.295Z,95.90
2018-07-04T20:06:43.118Z,96.20
2018-07-04T20:09:29.989Z,96.40
2018-07-04T20:12:16.840Z,96.70
2018-07-04T20:15:03.463Z,97.10
2018-07-04T20:17:50.068Z,97.70
2018-07-04T20:20:36.540Z,99.00
2018-07-04T20:23:23.279Z,99.90
2018-07-04T20:26:10.768Z,99.70
2018-07-04T20:28:57.194Z,99.80
2018-07-04T20:31:43.848Z,99.90
2018-07-04T20:34:30.630Z,99.90
2018-07-04T20:37:17.215Z,99.90
2018-07-04T20:40:03.780Z,99.90
2018-07-04T20:42:50.285Z,99.90
2018-07-04T20:45:36.963Z,99.90
2018-07-04T20:48:23.628Z,99.90
2018-07-04T20:51:11.130Z,99.90
2018-07-04T20:53:57.797Z,99.90
2018-07-04T20:56:45.371Z,99.90
2018-07-04T20:59:31.663Z,99.90
2018-07-04T21:02:18.072Z,99.90
2018-07-04T21:05:06.552Z,99.90
2018-07-04T21:07:53.952Z,99.90
2018-07-04T21:10:40.248Z,99.90
2018-07-04T21:13:26.632Z,99.90
2018-07-04T21:16:16.328Z,99.90
2018-07-04T21:19:02.925Z,99.90
2018-07-04T21:21:49.527Z,99.90
2018-07-04T21:24:41.700Z,99.90
2018-07-04T21:27:28.384Z,99.90
2018-07-04T21:30:14.836Z,99.90
2018-07-04T21:33:01.664Z,99.90
2018-07-04T21:35:48.188Z,99.90
2018-07-04T21:38:36.770Z,99.90
2018-07-04T21:41:23.288Z,99.90
2018-07-04T21:44:09.909Z,99.90
2018-07-04T21:46:56.379Z,99.90
2018-07-04T21:49:42.756Z,99.90
2018-07-04T21:52:29.410Z,99.90
2018-07-04T21:55:15.900Z,99.90
2018-07-04T21:58:02.365Z,99.90
2018-07-04T22:00:49.728Z,99.90
2018-07-04T22:03:36.331Z,99.90
2018-07-04T22:06:22.586Z,99.90
2018-07-04T22:09:09.131Z,99.90
2018-07-04T22:11:55.825Z,99.90
2018-07-04T22:14:42.285Z,99.90
2018-07-04T22:17:28.629Z,99.90
2018-07-04T22:20:15.014Z,99.90
2018-07-04T22:23:01.488Z,99.90
2018-07-04T22:28:28.404Z,99.90
2018-07-04T22:31:14.853Z,99.90
2018-07-04T22:34:01.275Z,99.90
2018-07-04T22:36:47.591Z,99.90
2018-07-04T22:39:33.997Z,99.90
2018-07-04T22:42:20.290Z,99.90
2018-07-04T22:45:06.785Z,99.90
2018-07-04T22:47:53.100Z,99.90
2018-07-04T22:50:39.562Z,99.90
2018-07-04T22:53:25.983Z,99.90
2018-07-04T22:56:12.332Z,99.90
2018-07-04T22:58:58.891Z,99.90
2018-07-04T23:01:45.360Z,99.90
2018-07-04T23:04:31.739Z,99.90
2018-07-04T23:07:18.317Z,99.90
2018-07-04T23:10:04.532Z,99.90
2018-07-04T23:12:50.799Z,99.90
2018-07-04T23:15:37.168Z,99.90
2018-07-04T23:18:23.736Z,99.90
2018-07-04T23:21:10.395Z,99.90
2018-07-04T23:24:01.191Z,99.90
2018-07-04T23:26:47.619Z,99.90
2018-07-04T23:29:34.000Z,99.90
2018-07-04T23:32:21.363Z,99.90
2018-07-04T23:35:07.832Z,99.90
2018-07-04T23:37:54.129Z,99.90
2018-07-04T23:40:40.515Z,99.90
2018-07-04T23:43:26.993Z,99.90
2018-07-04T23:46:13.564Z,99.90
2018-07-04T23:48:59.948Z,99.90
2018-07-04T23:51:46.327Z,99.90
2018-07-04T23:54:32.787Z,99.90
2018-07-04T23:57:19.065Z,99.90
